sensor_id;sensor_type;location;lat;lon;timestamp;temperature;humidity
23683;DHT22;24897;53.514;10.482;2023-05-14T00:02:18;13.70;99.90
23683;DHT22;24897;53.514;10.482;2023-05-14T00:05:02;13.70;99.90
23683;DHT22;24897;53.514;10.482;2023-05-14T00:07:46;13.60;99.90
23683;DHT22;24897;53.514;10.482;2023-05-14T00:10:30;13.60;99.90
23683;DHT22;24897;53.514;10.482;2023-05-14T00:13:15;13.60;99.90
23683;DHT22;24897;53.514;10.482;2023-05-14T00:15:59;13.50;99.90
23683;DHT22;24897;53.514;10.482;2023-05-14T00:18:43;13.50;99.90
23683;DHT22;24897;53.514;10.482;2023-05-14T00:21:28;13.40;99.90
23683;DHT22;24897;53.514;10.482;2023-05-14T00:24:13;13.40;99.90
23683;DHT22;24897;53.514;10.482;2023-05-14T00:26:57;13.40;99.90
23683;DHT22;24897;53.514;10.482;2023-05-14T00:29:42;13.30;99.90
23683;DHT22;24897;53.514;10.482;2023-05-14T00:32:26;13.30;99.90
23683;DHT22;24897;53.514;10.482;2023-05-14T00:35:10;13.30;99.90
23683;DHT22;24897;53.514;10.482;2023-05-14T00:37:54;13.20;99.90
23683;DHT22;24897;53.514;10.482;2023-05-14T00:40:39;13.20;99.90
23683;DHT22;24897;53.514;10.482;2023-05-14T00:43:27;13.10;99.90
23683;DHT22;24897;53.514;10.482;2023-05-14T00:46:11;13.10;99.90
23683;DHT22;24897;53.514;10.482;2023-05-14T00:48:57;13.00;99.90
23683;DHT22;24897;53.514;10.482;2023-05-14T00:51:42;12.90;99.90
23683;DHT22;24897;53.514;10.482;2023-05-14T00:54:29;12.90;99.90
23683;DHT22;24897;53.514;10.482;2023-05-14T00:57:14;12.80;99.90
23683;DHT22;24897;53.514;10.482;2023-05-14T00:59:58;12.70;99.90
23683;DHT22;24897;53.514;10.482;2023-05-14T01:02:44;12.60;99.90
23683;DHT22;24897;53.514;10.482;2023-05-14T01:06:08;12.50;99.90
23683;DHT22;24897;53.514;10.482;2023-05-14T01:09:29;12.40;99.90
23683;DHT22;24897;53.514;10.482;2023-05-14T01:15:09;12.20;99.90
23683;DHT22;24897;53.514;10.482;2023-05-14T01:17:58;12.10;99.90
23683;DHT22;24897;53.514;10.482;2023-05-14T01:20:44;12.10;99.90
23683;DHT22;24897;53.514;10.482;2023-05-14T01:23:28;12.00;99.90
23683;DHT22;24897;53.514;10.482;2023-05-14T01:26:12;11.90;99.90
23683;DHT22;24897;53.514;10.482;2023-05-14T01:29:03;11.90;99.90
23683;DHT22;24897;53.514;10.482;2023-05-14T01:31:50;11.80;99.90
23683;DHT22;24897;53.514;10.482;2023-05-14T01:34:38;11.70;99.90
23683;DHT22;24897;53.514;10.482;2023-05-14T01:37:24;11.60;99.90
23683;DHT22;24897;53.514;10.482;2023-05-14T01:40:13;11.40;99.90
23683;DHT22;24897;53.514;10.482;2023-05-14T01:42:59;11.50;99.90
23683;DHT22;24897;53.514;10.482;2023-05-14T01:45:43;11.40;99.90
23683;DHT22;24897;53.514;10.482;2023-05-14T01:48:27;11.40;99.90
23683;DHT22;24897;53.514;10.482;2023-05-14T01:51:12;11.40;99.90
23683;DHT22;24897;53.514;10.482;2023-05-14T01:53:57;11.30;99.90
23683;DHT22;24897;53.514;10.482;2023-05-14T01:56:41;11.30;99.90
23683;DHT22;24897;53.514;10.482;2023-05-14T01:59:26;11.30;99.90
23683;DHT22;24897;53.514;10.482;2023-05-14T02:02:12;11.20;99.90
23683;DHT22;24897;53.514;10.482;2023-05-14T02:04:57;11.20;99.90
23683;DHT22;24897;53.514;10.482;2023-05-14T02:07:41;11.10;99.90
23683;DHT22;24897;53.514;10.482;2023-05-14T02:10:25;11.20;99.90
23683;DHT22;24897;53.514;10.482;2023-05-14T02:13:09;11.10;99.90
23683;DHT22;24897;53.514;10.482;2023-05-14T02:15:53;11.00;99.90
23683;DHT22;24897;53.514;10.482;2023-05-14T02:18:37;10.90;99.90
23683;DHT22;24897;53.514;10.482;2023-05-14T02:21:21;10.90;99.90
23683;DHT22;24897;53.514;10.482;2023-05-14T02:24:06;10.90;99.90
23683;DHT22;24897;53.514;10.482;2023-05-14T02:26:50;10.80;99.90
23683;DHT22;24897;53.514;10.482;2023-05-14T02:29:33;10.80;99.90
23683;DHT22;24897;53.514;10.482;2023-05-14T02:32:21;10.80;99.90
23683;DHT22;24897;53.514;10.482;2023-05-14T02:35:05;10.80;99.90
23683;DHT22;24897;53.514;10.482;2023-05-14T02:37:49;10.80;99.90
23683;DHT22;24897;53.514;10.482;2023-05-14T02:40:35;10.90;99.90
23683;DHT22;24897;53.514;10.482;2023-05-14T02:43:20;10.80;99.90
23683;DHT22;24897;53.514;10.482;2023-05-14T02:46:04;10.90;99.90
23683;DHT22;24897;53.514;10.482;2023-05-14T02:48:48;11.00;99.90
23683;DHT22;24897;53.514;10.482;2023-05-14T02:51:32;11.00;99.90
23683;DHT22;24897;53.514;10.482;2023-05-14T02:54:16;11.00;99.90
23683;DHT22;24897;53.514;10.482;2023-05-14T02:57:00;11.00;99.90
23683;DHT22;24897;53.514;10.482;2023-05-14T02:59:44;10.90;99.90
23683;DHT22;24897;53.514;10.482;2023-05-14T03:02:28;10.80;99.90
23683;DHT22;24897;53.514;10.482;2023-05-14T03:05:12;10.80;99.90
23683;DHT22;24897;53.514;10.482;2023-05-14T03:07:57;10.80;99.90
23683;DHT22;24897;53.514;10.482;2023-05-14T03:10:41;10.80;99.90
23683;DHT22;24897;53.514;10.482;2023-05-14T03:13:25;10.80;99.90
23683;DHT22;24897;53.514;10.482;2023-05-14T03:16:09;10.70;99.90
23683;DHT22;24897;53.514;10.482;2023-05-14T03:18:54;10.70;99.90
23683;DHT22;24897;53.514;10.482;2023-05-14T03:21:38;10.60;99.90
23683;DHT22;24897;53.514;10.482;2023-05-14T03:24:22;10.70;99.90
23683;DHT22;24897;53.514;10.482;2023-05-14T03:27:06;10.60;99.90
23683;DHT22;24897;53.514;10.482;2023-05-14T03:29:50;10.50;99.90
23683;DHT22;24897;53.514;10.482;2023-05-14T03:32:35;10.50;99.90
23683;DHT22;24897;53.514;10.482;2023-05-14T03:35:20;10.50;99.90
23683;DHT22;24897;53.514;10.482;2023-05-14T03:38:04;10.50;99.90
23683;DHT22;24897;53.514;10.482;2023-05-14T03:40:49;10.50;99.90
23683;DHT22;24897;53.514;10.482;2023-05-14T03:43:33;10.50;99.90
23683;DHT22;24897;53.514;10.482;2023-05-14T03:46:18;10.60;99.90
23683;DHT22;24897;53.514;10.482;2023-05-14T03:49:02;10.80;99.90
23683;DHT22;24897;53.514;10.482;2023-05-14T03:51:46;11.10;99.90
23683;DHT22;24897;53.514;10.482;2023-05-14T03:54:30;11.60;99.90
23683;DHT22;24897;53.514;10.482;2023-05-14T03:57:14;12.00;99.90
23683;DHT22;24897;53.514;10.482;2023-05-14T03:59:59;12.60;99.90
23683;DHT22;24897;53.514;10.482;2023-05-14T04:02:43;13.00;99.90
23683;DHT22;24897;53.514;10.482;2023-05-14T04:05:27;13.60;99.90
23683;DHT22;24897;53.514;10.482;2023-05-14T04:08:11;14.10;99.90
23683;DHT22;24897;53.514;10.482;2023-05-14T04:10:55;14.70;99.90
23683;DHT22;24897;53.514;10.482;2023-05-14T04:13:39;15.20;99.90
23683;DHT22;24897;53.514;10.482;2023-05-14T04:16:23;15.80;99.90
23683;DHT22;24897;53.514;10.482;2023-05-14T04:19:08;16.30;99.90
23683;DHT22;24897;53.514;10.482;2023-05-14T04:21:57;16.70;99.90
23683;DHT22;24897;53.514;10.482;2023-05-14T04:24:41;17.00;99.90
23683;DHT22;24897;53.514;10.482;2023-05-14T04:27:25;17.40;99.90
23683;DHT22;24897;53.514;10.482;2023-05-14T04:30:10;17.80;99.90
23683;DHT22;24897;53.514;10.482;2023-05-14T04:32:54;18.30;99.90
23683;DHT22;24897;53.514;10.482;2023-05-14T04:35:39;18.70;99.90
23683;DHT22;24897;53.514;10.482;2023-05-14T04:38:23;19.00;99.90
23683;DHT22;24897;53.514;10.482;2023-05-14T04:41:07;19.40;99.90
23683;DHT22;24897;53.514;10.482;2023-05-14T04:43:54;19.80;99.90
23683;DHT22;24897;53.514;10.482;2023-05-14T04:46:39;20.00;99.90
23683;DHT22;24897;53.514;10.482;2023-05-14T04:49:23;20.10;99.90
23683;DHT22;24897;53.514;10.482;2023-05-14T04:52:07;20.10;99.90
23683;DHT22;24897;53.514;10.482;2023-05-14T04:54:51;20.00;99.90
23683;DHT22;24897;53.514;10.482;2023-05-14T04:57:35;20.00;99.90
23683;DHT22;24897;53.514;10.482;2023-05-14T05:00:19;19.80;99.90
23683;DHT22;24897;53.514;10.482;2023-05-14T05:03:04;19.60;99.90
23683;DHT22;24897;53.514;10.482;2023-05-14T05:05:48;19.40;99.90
23683;DHT22;24897;53.514;10.482;2023-05-14T05:08:33;19.40;99.90
23683;DHT22;24897;53.514;10.482;2023-05-14T05:11:17;19.40;99.90
23683;DHT22;24897;53.514;10.482;2023-05-14T05:14:01;19.20;99.90
23683;DHT22;24897;53.514;10.482;2023-05-14T05:16:45;19.30;99.90
23683;DHT22;24897;53.514;10.482;2023-05-14T05:19:30;19.50;99.90
23683;DHT22;24897;53.514;10.482;2023-05-14T05:22:14;19.60;99.90
23683;DHT22;24897;53.514;10.482;2023-05-14T05:24:58;19.60;99.90
23683;DHT22;24897;53.514;10.482;2023-05-14T05:27:43;19.60;99.90
23683;DHT22;24897;53.514;10.482;2023-05-14T05:30:27;19.50;99.90
23683;DHT22;24897;53.514;10.482;2023-05-14T05:33:13;19.60;99.90
23683;DHT22;24897;53.514;10.482;2023-05-14T05:35:57;19.70;99.90
23683;DHT22;24897;53.514;10.482;2023-05-14T05:38:41;19.90;99.90
23683;DHT22;24897;53.514;10.482;2023-05-14T05:41:25;19.90;99.90
23683;DHT22;24897;53.514;10.482;2023-05-14T05:44:12;19.90;99.90
23683;DHT22;24897;53.514;10.482;2023-05-14T05:46:56;20.10;99.90
23683;DHT22;24897;53.514;10.482;2023-05-14T05:49:41;20.50;99.90
23683;DHT22;24897;53.514;10.482;2023-05-14T05:52:25;21.40;99.90
23683;DHT22;24897;53.514;10.482;2023-05-14T05:55:10;22.30;99.90
23683;DHT22;24897;53.514;10.482;2023-05-14T05:57:54;23.10;99.90
23683;DHT22;24897;53.514;10.482;2023-05-14T06:00:39;23.60;99.90
23683;DHT22;24897;53.514;10.482;2023-05-14T06:03:23;24.10;99.90
23683;DHT22;24897;53.514;10.482;2023-05-14T06:06:07;24.10;99.90
23683;DHT22;24897;53.514;10.482;2023-05-14T06:08:51;24.10;99.90
23683;DHT22;24897;53.514;10.482;2023-05-14T06:11:35;24.10;99.90
23683;DHT22;24897;53.514;10.482;2023-05-14T06:14:20;24.20;99.90
23683;DHT22;24897;53.514;10.482;2023-05-14T06:17:04;23.90;99.90
23683;DHT22;24897;53.514;10.482;2023-05-14T06:19:48;23.40;99.90
23683;DHT22;24897;53.514;10.482;2023-05-14T06:22:33;23.30;99.90
23683;DHT22;24897;53.514;10.482;2023-05-14T06:25:17;23.30;99.90
23683;DHT22;24897;53.514;10.482;2023-05-14T06:28:02;23.20;99.90
23683;DHT22;24897;53.514;10.482;2023-05-14T06:30:48;23.40;99.90
23683;DHT22;24897;53.514;10.482;2023-05-14T06:33:33;23.20;99.90
23683;DHT22;24897;53.514;10.482;2023-05-14T06:36:17;23.40;99.90
23683;DHT22;24897;53.514;10.482;2023-05-14T06:39:01;24.20;99.90
23683;DHT22;24897;53.514;10.482;2023-05-14T06:41:46;24.60;99.90
23683;DHT22;24897;53.514;10.482;2023-05-14T06:44:30;24.60;99.90
23683;DHT22;24897;53.514;10.482;2023-05-14T06:47:15;24.80;99.90
23683;DHT22;24897;53.514;10.482;2023-05-14T06:49:59;24.50;99.90
23683;DHT22;24897;53.514;10.482;2023-05-14T06:52:45;24.40;99.90
23683;DHT22;24897;53.514;10.482;2023-05-14T06:55:29;24.40;99.90
23683;DHT22;24897;53.514;10.482;2023-05-14T06:58:13;24.40;99.90
23683;DHT22;24897;53.514;10.482;2023-05-14T07:00:58;24.20;99.90
23683;DHT22;24897;53.514;10.482;2023-05-14T07:03:42;24.10;99.90
23683;DHT22;24897;53.514;10.482;2023-05-14T07:06:27;24.20;99.90
23683;DHT22;24897;53.514;10.482;2023-05-14T07:09:11;24.30;99.90
23683;DHT22;24897;53.514;10.482;2023-05-14T07:11:56;24.30;99.90
23683;DHT22;24897;53.514;10.482;2023-05-14T07:14:40;24.50;99.90
23683;DHT22;24897;53.514;10.482;2023-05-14T07:17:24;24.50;99.90
23683;DHT22;24897;53.514;10.482;2023-05-14T07:20:09;24.20;99.90
23683;DHT22;24897;53.514;10.482;2023-05-14T07:22:54;24.20;99.90
23683;DHT22;24897;53.514;10.482;2023-05-14T07:25:38;24.30;99.90
23683;DHT22;24897;53.514;10.482;2023-05-14T07:28:22;24.50;99.90
23683;DHT22;24897;53.514;10.482;2023-05-14T07:31:11;24.50;99.90
23683;DHT22;24897;53.514;10.482;2023-05-14T07:33:55;24.30;99.90
23683;DHT22;24897;53.514;10.482;2023-05-14T07:36:40;24.10;99.90
23683;DHT22;24897;53.514;10.482;2023-05-14T07:39:24;24.20;99.90
23683;DHT22;24897;53.514;10.482;2023-05-14T07:42:08;24.30;99.90
23683;DHT22;24897;53.514;10.482;2023-05-14T07:44:52;24.30;99.90
23683;DHT22;24897;53.514;10.482;2023-05-14T07:47:38;24.40;99.90
23683;DHT22;24897;53.514;10.482;2023-05-14T07:50:22;24.20;99.90
23683;DHT22;24897;53.514;10.482;2023-05-14T07:53:06;24.10;99.90
23683;DHT22;24897;53.514;10.482;2023-05-14T07:55:50;24.30;99.90
23683;DHT22;24897;53.514;10.482;2023-05-14T07:58:35;24.30;99.90
23683;DHT22;24897;53.514;10.482;2023-05-14T08:01:19;23.90;99.90
23683;DHT22;24897;53.514;10.482;2023-05-14T08:04:04;24.00;99.90
23683;DHT22;24897;53.514;10.482;2023-05-14T08:06:48;24.40;99.90
23683;DHT22;24897;53.514;10.482;2023-05-14T08:09:32;24.70;99.90
23683;DHT22;24897;53.514;10.482;2023-05-14T08:12:17;24.70;99.90
23683;DHT22;24897;53.514;10.482;2023-05-14T08:15:02;24.90;99.90
23683;DHT22;24897;53.514;10.482;2023-05-14T08:17:46;24.80;99.90
23683;DHT22;24897;53.514;10.482;2023-05-14T08:20:32;24.90;99.90
23683;DHT22;24897;53.514;10.482;2023-05-14T08:23:17;25.10;99.90
23683;DHT22;24897;53.514;10.482;2023-05-14T08:26:01;25.20;99.90
23683;DHT22;24897;53.514;10.482;2023-05-14T08:28:45;25.30;99.90
23683;DHT22;24897;53.514;10.482;2023-05-14T08:31:29;25.50;99.90
23683;DHT22;24897;53.514;10.482;2023-05-14T08:34:13;25.30;99.90
23683;DHT22;24897;53.514;10.482;2023-05-14T08:36:58;25.30;99.90
23683;DHT22;24897;53.514;10.482;2023-05-14T08:39:42;25.40;99.90
23683;DHT22;24897;53.514;10.482;2023-05-14T08:42:28;25.50;99.90
23683;DHT22;24897;53.514;10.482;2023-05-14T08:45:19;25.50;99.90
23683;DHT22;24897;53.514;10.482;2023-05-14T08:48:06;25.50;99.90
23683;DHT22;24897;53.514;10.482;2023-05-14T08:50:52;25.60;99.90
23683;DHT22;24897;53.514;10.482;2023-05-14T08:53:36;25.30;99.90
23683;DHT22;24897;53.514;10.482;2023-05-14T08:56:24;25.10;99.90
23683;DHT22;24897;53.514;10.482;2023-05-14T08:59:09;25.40;99.90
23683;DHT22;24897;53.514;10.482;2023-05-14T09:01:54;25.70;99.90
23683;DHT22;24897;53.514;10.482;2023-05-14T09:04:38;26.00;99.90
23683;DHT22;24897;53.514;10.482;2023-05-14T09:07:24;26.00;99.90
23683;DHT22;24897;53.514;10.482;2023-05-14T09:10:09;25.90;99.90
23683;DHT22;24897;53.514;10.482;2023-05-14T09:12:54;25.90;99.90
23683;DHT22;24897;53.514;10.482;2023-05-14T09:15:38;25.90;99.90
23683;DHT22;24897;53.514;10.482;2023-05-14T09:18:24;25.90;99.90
23683;DHT22;24897;53.514;10.482;2023-05-14T09:21:09;26.10;99.90
23683;DHT22;24897;53.514;10.482;2023-05-14T09:23:56;26.30;99.90
23683;DHT22;24897;53.514;10.482;2023-05-14T09:26:41;26.60;99.90
23683;DHT22;24897;53.514;10.482;2023-05-14T09:29:27;26.50;99.90
23683;DHT22;24897;53.514;10.482;2023-05-14T09:32:12;26.40;99.90
23683;DHT22;24897;53.514;10.482;2023-05-14T09:34:56;26.10;99.90
23683;DHT22;24897;53.514;10.482;2023-05-14T09:37:45;26.10;99.90
23683;DHT22;24897;53.514;10.482;2023-05-14T09:40:29;26.20;99.90
23683;DHT22;24897;53.514;10.482;2023-05-14T09:43:14;26.50;99.90
23683;DHT22;24897;53.514;10.482;2023-05-14T09:45:58;26.60;99.90
23683;DHT22;24897;53.514;10.482;2023-05-14T09:48:42;26.40;99.90
23683;DHT22;24897;53.514;10.482;2023-05-14T09:51:30;26.30;99.90
23683;DHT22;24897;53.514;10.482;2023-05-14T09:54:15;26.10;99.90
23683;DHT22;24897;53.514;10.482;2023-05-14T09:56:59;25.80;99.90
23683;DHT22;24897;53.514;10.482;2023-05-14T09:59:44;25.50;99.90
23683;DHT22;24897;53.514;10.482;2023-05-14T10:02:36;25.30;99.90
23683;DHT22;24897;53.514;10.482;2023-05-14T10:05:21;25.50;99.90
23683;DHT22;24897;53.514;10.482;2023-05-14T10:08:16;25.80;99.90
23683;DHT22;24897;53.514;10.482;2023-05-14T10:11:05;25.80;99.90
23683;DHT22;24897;53.514;10.482;2023-05-14T10:14:13;25.70;99.90
23683;DHT22;24897;53.514;10.482;2023-05-14T10:17:02;25.50;99.90
23683;DHT22;24897;53.514;10.482;2023-05-14T10:19:53;25.90;99.90
23683;DHT22;24897;53.514;10.482;2023-05-14T10:22:40;25.50;99.90
23683;DHT22;24897;53.514;10.482;2023-05-14T10:25:24;25.10;99.90
23683;DHT22;24897;53.514;10.482;2023-05-14T10:28:09;25.60;99.90
23683;DHT22;24897;53.514;10.482;2023-05-14T10:30:53;25.50;99.90
23683;DHT22;24897;53.514;10.482;2023-05-14T10:33:48;24.80;99.90
23683;DHT22;24897;53.514;10.482;2023-05-14T10:36:33;24.40;99.90
23683;DHT22;24897;53.514;10.482;2023-05-14T10:39:18;24.20;99.90
23683;DHT22;24897;53.514;10.482;2023-05-14T10:42:03;24.00;99.90
23683;DHT22;24897;53.514;10.482;2023-05-14T10:44:49;23.90;99.90
23683;DHT22;24897;53.514;10.482;2023-05-14T10:47:38;23.70;99.90
23683;DHT22;24897;53.514;10.482;2023-05-14T10:50:23;23.60;99.90
23683;DHT22;24897;53.514;10.482;2023-05-14T10:53:12;23.50;99.90
23683;DHT22;24897;53.514;10.482;2023-05-14T10:55:57;23.70;99.90
23683;DHT22;24897;53.514;10.482;2023-05-14T10:58:43;24.00;99.90
23683;DHT22;24897;53.514;10.482;2023-05-14T11:01:28;24.00;99.90
23683;DHT22;24897;53.514;10.482;2023-05-14T11:04:18;23.80;99.90
23683;DHT22;24897;53.514;10.482;2023-05-14T11:07:06;23.70;99.90
23683;DHT22;24897;53.514;10.482;2023-05-14T11:09:50;23.90;99.90
23683;DHT22;24897;53.514;10.482;2023-05-14T11:12:37;24.10;99.90
23683;DHT22;24897;53.514;10.482;2023-05-14T11:15:24;24.00;99.90
23683;DHT22;24897;53.514;10.482;2023-05-14T11:18:09;24.00;99.90
23683;DHT22;24897;53.514;10.482;2023-05-14T11:20:59;24.70;99.90
23683;DHT22;24897;53.514;10.482;2023-05-14T11:23:47;25.50;99.90
23683;DHT22;24897;53.514;10.482;2023-05-14T11:26:32;25.50;99.90
23683;DHT22;24897;53.514;10.482;2023-05-14T11:29:17;25.80;99.90
23683;DHT22;24897;53.514;10.482;2023-05-14T11:32:04;26.50;99.90
23683;DHT22;24897;53.514;10.482;2023-05-14T11:34:48;26.80;99.50
23683;DHT22;24897;53.514;10.482;2023-05-14T11:37:33;26.40;99.30
23683;DHT22;24897;53.514;10.482;2023-05-14T11:40:17;26.00;98.60
23683;DHT22;24897;53.514;10.482;2023-05-14T11:43:02;25.60;98.70
23683;DHT22;24897;53.514;10.482;2023-05-14T11:45:50;25.30;99.90
23683;DHT22;24897;53.514;10.482;2023-05-14T11:48:35;24.90;99.90
23683;DHT22;24897;53.514;10.482;2023-05-14T11:51:20;24.30;99.90
23683;DHT22;24897;53.514;10.482;2023-05-14T11:54:04;24.10;99.90
23683;DHT22;24897;53.514;10.482;2023-05-14T11:56:49;23.70;99.90
23683;DHT22;24897;53.514;10.482;2023-05-14T11:59:34;23.50;99.90
23683;DHT22;24897;53.514;10.482;2023-05-14T12:02:18;23.50;99.90
23683;DHT22;24897;53.514;10.482;2023-05-14T12:05:04;23.60;99.90
23683;DHT22;24897;53.514;10.482;2023-05-14T12:07:50;23.70;99.90
23683;DHT22;24897;53.514;10.482;2023-05-14T12:10:41;23.50;99.90
23683;DHT22;24897;53.514;10.482;2023-05-14T12:13:26;23.40;99.90
23683;DHT22;24897;53.514;10.482;2023-05-14T12:16:11;23.20;99.90
23683;DHT22;24897;53.514;10.482;2023-05-14T12:19:00;22.80;99.90
23683;DHT22;24897;53.514;10.482;2023-05-14T12:21:47;22.40;99.90
23683;DHT22;24897;53.514;10.482;2023-05-14T12:24:34;22.20;99.90
23683;DHT22;24897;53.514;10.482;2023-05-14T12:27:23;22.30;99.90
23683;DHT22;24897;53.514;10.482;2023-05-14T12:30:11;22.50;99.90
23683;DHT22;24897;53.514;10.482;2023-05-14T12:32:55;22.70;99.90
23683;DHT22;24897;53.514;10.482;2023-05-14T12:35:39;23.00;99.90
23683;DHT22;24897;53.514;10.482;2023-05-14T12:38:24;23.20;99.90
23683;DHT22;24897;53.514;10.482;2023-05-14T12:41:08;23.30;99.90
23683;DHT22;24897;53.514;10.482;2023-05-14T12:43:52;23.40;99.90
23683;DHT22;24897;53.514;10.482;2023-05-14T12:46:37;23.40;99.90
23683;DHT22;24897;53.514;10.482;2023-05-14T12:49:20;23.40;99.90
23683;DHT22;24897;53.514;10.482;2023-05-14T12:52:05;23.40;99.90
23683;DHT22;24897;53.514;10.482;2023-05-14T12:54:49;23.40;99.90
23683;DHT22;24897;53.514;10.482;2023-05-14T12:57:34;23.30;99.90
23683;DHT22;24897;53.514;10.482;2023-05-14T13:00:18;23.10;99.90
23683;DHT22;24897;53.514;10.482;2023-05-14T13:03:03;23.10;99.90
23683;DHT22;24897;53.514;10.482;2023-05-14T13:05:47;23.30;99.90
23683;DHT22;24897;53.514;10.482;2023-05-14T13:08:31;23.20;99.90
23683;DHT22;24897;53.514;10.482;2023-05-14T13:11:15;23.30;99.90
23683;DHT22;24897;53.514;10.482;2023-05-14T13:14:00;23.50;99.90
23683;DHT22;24897;53.514;10.482;2023-05-14T13:16:45;23.50;99.90
23683;DHT22;24897;53.514;10.482;2023-05-14T13:19:29;23.50;99.90
23683;DHT22;24897;53.514;10.482;2023-05-14T13:22:14;23.40;99.90
23683;DHT22;24897;53.514;10.482;2023-05-14T13:25:00;23.50;99.90
23683;DHT22;24897;53.514;10.482;2023-05-14T13:27:44;23.70;99.90
23683;DHT22;24897;53.514;10.482;2023-05-14T13:30:28;24.00;99.90
23683;DHT22;24897;53.514;10.482;2023-05-14T13:33:12;24.10;99.90
23683;DHT22;24897;53.514;10.482;2023-05-14T13:35:56;24.00;99.90
23683;DHT22;24897;53.514;10.482;2023-05-14T13:38:40;24.20;99.90
23683;DHT22;24897;53.514;10.482;2023-05-14T13:41:25;24.20;99.90
23683;DHT22;24897;53.514;10.482;2023-05-14T13:44:09;24.30;99.90
23683;DHT22;24897;53.514;10.482;2023-05-14T13:46:53;24.70;99.90
23683;DHT22;24897;53.514;10.482;2023-05-14T13:49:37;24.80;99.90
23683;DHT22;24897;53.514;10.482;2023-05-14T13:52:23;24.70;99.90
23683;DHT22;24897;53.514;10.482;2023-05-14T13:55:07;24.10;99.90
23683;DHT22;24897;53.514;10.482;2023-05-14T13:57:52;23.80;99.90
23683;DHT22;24897;53.514;10.482;2023-05-14T14:00:36;23.60;99.90
23683;DHT22;24897;53.514;10.482;2023-05-14T14:03:20;23.40;99.90
23683;DHT22;24897;53.514;10.482;2023-05-14T14:06:04;23.30;99.90
23683;DHT22;24897;53.514;10.482;2023-05-14T14:08:48;23.20;99.90
23683;DHT22;24897;53.514;10.482;2023-05-14T14:11:32;23.40;99.90
23683;DHT22;24897;53.514;10.482;2023-05-14T14:14:17;23.40;99.90
23683;DHT22;24897;53.514;10.482;2023-05-14T14:17:01;23.30;99.90
23683;DHT22;24897;53.514;10.482;2023-05-14T14:19:46;23.30;99.90
23683;DHT22;24897;53.514;10.482;2023-05-14T14:22:30;23.60;99.90
23683;DHT22;24897;53.514;10.482;2023-05-14T14:25:14;23.80;99.90
23683;DHT22;24897;53.514;10.482;2023-05-14T14:27:58;23.60;99.90
23683;DHT22;24897;53.514;10.482;2023-05-14T14:30:42;23.30;99.90
23683;DHT22;24897;53.514;10.482;2023-05-14T14:33:26;23.10;99.90
23683;DHT22;24897;53.514;10.482;2023-05-14T14:36:11;23.20;99.90
23683;DHT22;24897;53.514;10.482;2023-05-14T14:38:55;23.30;99.90
23683;DHT22;24897;53.514;10.482;2023-05-14T14:41:40;23.20;99.90
23683;DHT22;24897;53.514;10.482;2023-05-14T14:44:24;23.20;99.90
23683;DHT22;24897;53.514;10.482;2023-05-14T14:47:08;23.20;99.90
23683;DHT22;24897;53.514;10.482;2023-05-14T14:49:52;23.30;99.90
23683;DHT22;24897;53.514;10.482;2023-05-14T14:52:37;23.40;99.90
23683;DHT22;24897;53.514;10.482;2023-05-14T14:55:21;23.50;99.90
23683;DHT22;24897;53.514;10.482;2023-05-14T14:58:05;23.50;99.90
23683;DHT22;24897;53.514;10.482;2023-05-14T15:00:54;23.50;99.90
23683;DHT22;24897;53.514;10.482;2023-05-14T15:03:38;23.60;99.90
23683;DHT22;24897;53.514;10.482;2023-05-14T15:06:22;23.80;99.90
23683;DHT22;24897;53.514;10.482;2023-05-14T15:09:06;23.90;99.90
23683;DHT22;24897;53.514;10.482;2023-05-14T15:11:50;24.00;99.90
23683;DHT22;24897;53.514;10.482;2023-05-14T15:14:35;24.00;99.90
23683;DHT22;24897;53.514;10.482;2023-05-14T15:17:20;23.90;99.90
23683;DHT22;24897;53.514;10.482;2023-05-14T15:20:04;24.00;99.90
23683;DHT22;24897;53.514;10.482;2023-05-14T15:22:50;24.30;99.90
23683;DHT22;24897;53.514;10.482;2023-05-14T15:25:36;24.20;99.90
23683;DHT22;24897;53.514;10.482;2023-05-14T15:28:20;23.60;99.90
23683;DHT22;24897;53.514;10.482;2023-05-14T15:31:04;23.20;99.90
23683;DHT22;24897;53.514;10.482;2023-05-14T15:33:49;22.90;99.90
23683;DHT22;24897;53.514;10.482;2023-05-14T15:36:33;23.00;99.90
23683;DHT22;24897;53.514;10.482;2023-05-14T15:39:17;23.10;99.90
23683;DHT22;24897;53.514;10.482;2023-05-14T15:42:03;23.30;99.90
23683;DHT22;24897;53.514;10.482;2023-05-14T15:44:47;23.20;99.90
23683;DHT22;24897;53.514;10.482;2023-05-14T15:47:32;23.10;99.90
23683;DHT22;24897;53.514;10.482;2023-05-14T15:50:16;22.90;99.90
23683;DHT22;24897;53.514;10.482;2023-05-14T15:53:00;22.80;99.90
23683;DHT22;24897;53.514;10.482;2023-05-14T15:55:46;22.70;99.90
23683;DHT22;24897;53.514;10.482;2023-05-14T15:58:31;22.70;99.90
23683;DHT22;24897;53.514;10.482;2023-05-14T16:01:15;22.70;99.90
23683;DHT22;24897;53.514;10.482;2023-05-14T16:03:59;22.80;99.90
23683;DHT22;24897;53.514;10.482;2023-05-14T16:06:43;22.80;99.90
23683;DHT22;24897;53.514;10.482;2023-05-14T16:09:28;22.80;99.90
23683;DHT22;24897;53.514;10.482;2023-05-14T16:12:12;22.90;99.90
23683;DHT22;24897;53.514;10.482;2023-05-14T16:14:57;23.10;99.90
23683;DHT22;24897;53.514;10.482;2023-05-14T16:17:41;23.30;99.90
23683;DHT22;24897;53.514;10.482;2023-05-14T16:20:25;23.10;99.90
23683;DHT22;24897;53.514;10.482;2023-05-14T16:23:09;22.90;99.90
23683;DHT22;24897;53.514;10.482;2023-05-14T16:25:53;22.70;99.90
23683;DHT22;24897;53.514;10.482;2023-05-14T16:28:38;22.60;99.90
23683;DHT22;24897;53.514;10.482;2023-05-14T16:31:24;22.70;99.90
23683;DHT22;24897;53.514;10.482;2023-05-14T16:34:08;22.60;99.90
23683;DHT22;24897;53.514;10.482;2023-05-14T16:36:52;22.30;99.90
23683;DHT22;24897;53.514;10.482;2023-05-14T16:39:36;22.10;99.90
23683;DHT22;24897;53.514;10.482;2023-05-14T16:42:21;21.90;99.90
23683;DHT22;24897;53.514;10.482;2023-05-14T16:45:05;21.80;99.90
23683;DHT22;24897;53.514;10.482;2023-05-14T16:47:49;21.80;99.90
23683;DHT22;24897;53.514;10.482;2023-05-14T16:50:33;21.90;99.90
23683;DHT22;24897;53.514;10.482;2023-05-14T16:53:18;21.90;99.90
23683;DHT22;24897;53.514;10.482;2023-05-14T16:56:02;21.90;99.90
23683;DHT22;24897;53.514;10.482;2023-05-14T16:58:46;22.10;99.90
23683;DHT22;24897;53.514;10.482;2023-05-14T17:01:30;22.10;99.90
23683;DHT22;24897;53.514;10.482;2023-05-14T17:04:15;22.10;99.90
23683;DHT22;24897;53.514;10.482;2023-05-14T17:07:01;22.00;99.90
23683;DHT22;24897;53.514;10.482;2023-05-14T17:09:46;21.80;99.90